createdAt,value
2022-08-03T00:00:00.093Z,2.1
2022-08-03T00:01:00.504Z,2.2
2022-08-03T00:02:01.133Z,2.3
2022-08-03T00:03:01.614Z,2.3
2022-08-03T00:04:02.266Z,2.5
2022-08-03T00:05:02.593Z,2.3
2022-08-03T00:06:04.206Z,2.6
2022-08-03T00:07:03.211Z,2.6
2022-08-03T00:08:04.471Z,2
2022-08-03T00:09:05.685Z,2.1
2022-08-03T00:10:05.241Z,2.3
2022-08-03T00:11:05.193Z,2.2
2022-08-03T00:12:06.420Z,2.4
2022-08-03T00:13:06.318Z,2.4
2022-08-03T00:14:06.942Z,2.5
2022-08-03T00:15:11.415Z,2.7
2022-08-03T00:16:09.012Z,2.4
2022-08-03T00:17:09.125Z,2.5
2022-08-03T00:18:09.934Z,2.5
2022-08-03T00:19:10.154Z,2.4
2022-08-03T00:20:11.394Z,2.4
2022-08-03T00:21:11.387Z,2.4
2022-08-03T00:22:11.296Z,2.2
2022-08-03T00:23:11.722Z,2.2
2022-08-03T00:24:12.222Z,2.3
2022-08-03T00:25:12.605Z,2.4
2022-08-03T00:26:13.060Z,2
2022-08-03T00:27:16.643Z,2.1
2022-08-03T00:28:14.200Z,2.2
2022-08-03T00:29:14.615Z,2.4
2022-08-03T00:30:15.440Z,2.1
2022-08-03T00:31:15.838Z,2.3
2022-08-03T00:32:16.400Z,2.2
2022-08-03T00:33:16.995Z,2.1
2022-08-03T00:34:16.900Z,2.5
2022-08-03T00:35:36.950Z,2.3
2022-08-03T00:36:21.937Z,2.1
2022-08-03T00:37:22.453Z,2.4
2022-08-03T00:38:23.379Z,2.3
2022-08-03T00:39:23.768Z,2.4
2022-08-03T00:40:24.829Z,2.7
2022-08-03T00:41:24.832Z,2.6
2022-08-03T00:42:28.538Z,2.5
2022-08-03T00:43:26.791Z,2.5
2022-08-03T00:44:26.695Z,2.5
2022-08-03T00:45:29.777Z,2.2
2022-08-03T00:46:27.536Z,2.5
2022-08-03T00:47:28.049Z,2.4
2022-08-03T00:48:33.198Z,2.5
2022-08-03T00:49:31.380Z,2.2
2022-08-03T00:50:34.826Z,2.1
2022-08-03T00:51:33.915Z,2.2
2022-08-03T00:52:33.201Z,2.5
2022-08-03T00:53:35.575Z,2.3
2022-08-03T00:54:36.295Z,2.6
2022-08-03T00:55:36.727Z,2.3
2022-08-03T00:56:35.993Z,2.4
2022-08-03T00:57:35.695Z,2.3
2022-08-03T00:58:36.104Z,2.1
2022-08-03T00:59:36.322Z,2.5
2022-08-03T01:00:39.194Z,2.2
2022-08-03T01:01:37.283Z,2.1
2022-08-03T01:02:39.312Z,2.2
2022-08-03T01:03:38.289Z,2.1
2022-08-03T01:04:38.704Z,2.2
2022-08-03T01:12:06.610Z,2.1
2022-08-03T01:16:15.746Z,2.5
2022-08-03T01:17:19.335Z,2.3
2022-08-03T01:20:20.873Z,2.4
2022-08-03T01:30:43.902Z,2.5
2022-08-03T01:37:03.293Z,2.2
2022-08-03T01:39:04.124Z,2.2
2022-08-03T01:40:03.411Z,2.6
2022-08-03T01:42:07.519Z,2.2
2022-08-03T01:43:08.038Z,2
2022-08-03T01:44:30.065Z,2.2
2022-08-03T01:45:08.862Z,1.8
2022-08-03T01:46:09.285Z,2.1
2022-08-03T01:47:08.894Z,1.9
2022-08-03T01:48:10.943Z,1.9
2022-08-03T01:49:11.088Z,1.9
2022-08-03T01:50:11.063Z,1.9
2022-08-03T01:51:10.660Z,1.9
2022-08-03T01:52:12.922Z,2.4
2022-08-03T01:53:13.332Z,2.1
2022-08-03T01:54:12.511Z,2.1
2022-08-03T01:55:13.544Z,2.1
2022-08-03T01:56:13.345Z,2.1
2022-08-03T01:57:13.153Z,2
2022-08-03T01:58:15.103Z,2.2
2022-08-03T01:59:16.754Z,2.1
2022-08-03T02:00:14.911Z,1.9
2022-08-03T02:01:17.043Z,1.9
2022-08-03T02:02:33.204Z,2.3
2022-08-03T02:03:18.531Z,1.8
2022-08-03T02:05:20.891Z,2
2022-08-03T02:07:01.615Z,2.3
2022-08-03T02:07:20.379Z,2.2
2022-08-03T02:08:20.595Z,2
2022-08-03T02:09:22.239Z,2.3
2022-08-03T02:10:35.489Z,2.1
2022-08-03T02:11:23.591Z,1.7
2022-08-03T02:12:28.399Z,1.9
2022-08-03T02:13:28.097Z,2
2022-08-03T02:14:28.311Z,1.9
2022-08-03T02:15:28.633Z,1.8
2022-08-03T02:16:31.395Z,2.2
2022-08-03T02:17:38.725Z,2
2022-08-03T02:18:34.490Z,2
2022-08-03T02:19:35.819Z,2.1
2022-08-03T02:20:34.812Z,2
2022-08-03T02:21:57.291Z,1.9
2022-08-03T02:22:36.052Z,1.8
2022-08-03T02:23:34.831Z,2.3
2022-08-03T02:24:35.352Z,2
2022-08-03T02:25:42.735Z,2.2
2022-08-03T02:26:42.841Z,2.1
2022-08-03T02:28:47.773Z,2.1
2022-08-03T02:29:46.742Z,2
2022-08-03T02:30:51.807Z,2.3
2022-08-03T02:31:49.321Z,2
2022-08-03T02:32:52.401Z,2.1
2022-08-03T02:33:57.621Z,1.9
2022-08-03T02:34:53.035Z,2.1
2022-08-03T02:35:52.920Z,2.1
2022-08-03T02:36:53.762Z,1.9
2022-08-03T02:37:54.680Z,2.1
2022-08-03T02:38:54.991Z,2.1
2022-08-03T02:40:01.050Z,2.1
2022-08-03T02:41:01.261Z,1.9
2022-08-03T02:42:01.471Z,1.7
2022-08-03T02:43:12.432Z,1.8
2022-08-03T02:44:06.673Z,1.8
2022-08-03T02:45:10.084Z,2
2022-08-03T02:46:12.040Z,2.2
2022-08-03T02:47:11.834Z,2.4
2022-08-03T02:48:12.967Z,2
2022-08-03T02:49:41.110Z,2.2
2022-08-03T02:50:17.228Z,1.8
2022-08-03T02:51:18.720Z,2.3
2022-08-03T02:52:18.798Z,1.7
2022-08-03T02:53:19.837Z,1.8
2022-08-03T02:54:20.182Z,1.8
2022-08-03T02:55:21.326Z,2.1
2022-08-03T02:56:20.496Z,2.3
2022-08-03T02:57:21.644Z,2.2
2022-08-03T02:58:21.140Z,2
2022-08-03T02:59:21.341Z,2
2022-08-03T03:00:27.814Z,2
2022-08-03T03:01:23.162Z,1.8
2022-08-03T03:02:22.183Z,1.9
2022-08-03T03:03:23.110Z,1.9
2022-08-03T03:04:24.195Z,2.8
2022-08-03T03:05:55.927Z,1.7
2022-08-03T03:06:30.604Z,2.1
2022-08-03T03:07:31.451Z,2
2022-08-03T03:08:32.871Z,2.1
2022-08-03T03:09:40.233Z,2
2022-08-03T03:10:34.419Z,2
2022-08-03T03:11:38.628Z,2.2
2022-08-03T03:12:40.874Z,2.3
2022-08-03T03:13:39.652Z,2.1
2022-08-03T03:14:39.461Z,2
2022-08-03T03:15:39.780Z,2.2
2022-08-03T03:16:42.041Z,1.9
2022-08-03T03:17:41.332Z,2
2022-08-03T03:18:41.541Z,2
2022-08-03T03:19:42.979Z,1.8
2022-08-03T03:20:41.760Z,1.8
2022-08-03T03:21:43.597Z,2
2022-08-03T03:22:43.504Z,2.1
2022-08-03T03:23:43.508Z,2
2022-08-03T03:24:44.348Z,2
2022-08-03T03:25:44.251Z,1.9
2022-08-03T03:26:44.664Z,1.9
2022-08-03T03:27:49.485Z,1.9
2022-08-03T03:28:48.764Z,2.1
2022-08-03T03:29:49.300Z,2.1
2022-08-03T03:30:52.777Z,1.8
2022-08-03T03:31:51.435Z,1.8
2022-08-03T03:32:52.591Z,2.2
2022-08-03T03:33:51.671Z,4.1
2022-08-03T03:34:52.405Z,5.6
2022-08-03T03:35:53.733Z,6.4
2022-08-03T03:36:52.894Z,6.8
2022-08-03T03:37:53.654Z,6.8
2022-08-03T03:38:53.921Z,5.9
2022-08-03T03:39:57.240Z,6.4
2022-08-03T03:40:55.500Z,6.2
2022-08-03T03:41:55.523Z,6.1
2022-08-03T03:42:55.830Z,5.5
2022-08-03T03:43:56.140Z,6
2022-08-03T03:44:56.856Z,5.9
2022-08-03T03:45:58.501Z,5.7
2022-08-03T03:47:00.465Z,5.4
2022-08-03T03:48:00.471Z,4.8
2022-08-03T03:48:58.378Z,4.5
2022-08-03T03:49:59.454Z,4.8
2022-08-03T03:50:59.354Z,4.3
2022-08-03T03:51:59.680Z,4.1
2022-08-03T03:53:00.600Z,4
2022-08-03T03:54:04.907Z,4
2022-08-03T03:55:02.416Z,3.8
2022-08-03T03:56:03.294Z,4.1
2022-08-03T03:57:04.012Z,3.7
2022-08-03T03:58:04.311Z,3.9
2022-08-03T03:59:04.422Z,3.7
2022-08-03T04:00:05.683Z,3.6
2022-08-03T04:01:05.051Z,3.6
2022-08-03T04:02:06.710Z,3.6
2022-08-03T04:03:05.992Z,3.9
2022-08-03T04:04:06.508Z,3.8
2022-08-03T04:05:08.459Z,3.7
2022-08-03T04:06:07.846Z,4.2
2022-08-03T04:07:07.660Z,4.2
2022-08-03T04:08:12.383Z,3.5
2022-08-03T04:09:11.153Z,3.9
2022-08-03T04:12:22.837Z,3.8
2022-08-03T04:13:21.817Z,3.5
2022-08-03T04:14:28.601Z,3.8
2022-08-03T04:15:24.293Z,3.4
2022-08-03T04:16:26.655Z,3.3
2022-08-03T04:17:28.402Z,3.3
2022-08-03T04:18:29.733Z,3.3
2022-08-03T04:20:33.050Z,3.2
2022-08-03T04:21:32.219Z,3.4
2022-08-03T04:22:32.739Z,3.1
2022-08-03T04:23:34.585Z,3.4
2022-08-03T04:24:35.323Z,3.2
2022-08-03T04:25:37.684Z,3
2022-08-03T04:26:39.532Z,3.6
2022-08-03T04:27:40.448Z,3.1
2022-08-03T04:28:41.482Z,3.1
2022-08-03T04:29:48.119Z,3.5
2022-08-03T04:30:45.392Z,3.2
2022-08-03T04:31:45.594Z,3.5
2022-08-03T04:32:45.961Z,3.8
2022-08-03T04:33:45.204Z,3.2
2022-08-03T04:34:44.700Z,3.3
2022-08-03T04:36:00.891Z,3.6
2022-08-03T04:37:51.479Z,3.3
2022-08-03T04:39:54.450Z,3.1
2022-08-03T04:40:56.924Z,3.1
2022-08-03T04:42:07.095Z,3
2022-08-03T04:42:58.174Z,3.2
2022-08-03T04:43:59.091Z,2.8
2022-08-03T04:45:01.428Z,3
2022-08-03T04:46:00.427Z,3.1
2022-08-03T04:47:00.448Z,3.1
2022-08-03T04:48:02.857Z,3.7
2022-08-03T04:49:01.883Z,4.6
2022-08-03T04:50:09.137Z,4.6
2022-08-03T04:51:05.082Z,3.8
2022-08-03T04:52:07.339Z,4.7
2022-08-03T04:53:08.158Z,3.8
2022-08-03T04:54:07.241Z,3.6
2022-08-03T04:55:08.180Z,3.3
2022-08-03T04:56:08.900Z,3.5
2022-08-03T04:57:08.699Z,3.4
2022-08-03T04:58:08.915Z,3.3
2022-08-03T04:59:12.705Z,3.3
2022-08-03T05:00:11.331Z,3.3
2022-08-03T05:01:10.883Z,3.1
2022-08-03T05:02:11.170Z,3.4
2022-08-03T05:03:20.211Z,3.3
2022-08-03T05:04:16.828Z,3.5
2022-08-03T05:05:17.362Z,3.4
2022-08-03T05:06:17.456Z,3.4
2022-08-03T05:07:22.700Z,3.7
2022-08-03T05:08:27.770Z,3.6
2022-08-03T05:09:49.942Z,4.1
2022-08-03T05:10:28.142Z,3.4
2022-08-03T05:11:28.460Z,4.1
2022-08-03T05:12:32.535Z,3.5
2022-08-03T05:13:30.374Z,3.3
2022-08-03T05:14:31.072Z,3.1
2022-08-03T05:15:31.142Z,3.3
2022-08-03T05:16:31.771Z,3.3
2022-08-03T05:17:32.179Z,3.1
2022-08-03T05:18:32.594Z,3.8
2022-08-03T05:19:32.889Z,3.9
2022-08-03T05:20:33.122Z,3.6
2022-08-03T05:21:52.596Z,3.4
2022-08-03T05:22:35.380Z,3.4
2022-08-03T05:23:35.910Z,3.5
2022-08-03T05:24:36.022Z,3.6
2022-08-03T05:25:36.631Z,3.6
2022-08-03T05:26:36.985Z,3.4
2022-08-03T05:27:37.157Z,3.4
2022-08-03T05:28:37.982Z,3.3
2022-08-03T05:28:51.301Z,3.3
2022-08-03T05:28:53.661Z,3.8
2022-08-03T05:28:58.767Z,3.8
2022-08-03T05:29:04.101Z,3.8
2022-08-03T05:29:08.702Z,3.7
2022-08-03T05:29:14.030Z,3.7
2022-08-03T05:29:18.888Z,3.7
2022-08-03T05:29:23.942Z,3.7
2022-08-03T05:29:28.881Z,3.7
2022-08-03T05:29:33.804Z,3.7
2022-08-03T05:30:34.752Z,3.3
2022-08-03T05:31:34.723Z,3.3
2022-08-03T05:32:35.359Z,3.5
2022-08-03T05:33:35.462Z,3.3
2022-08-03T05:34:36.028Z,3.4
2022-08-03T05:35:57.187Z,3.3
2022-08-03T05:36:39.381Z,3.5
2022-08-03T05:37:39.893Z,3.4
2022-08-03T05:38:42.140Z,3.4
2022-08-03T05:39:42.470Z,3.4
2022-08-03T05:40:46.976Z,3.2
2022-08-03T05:41:45.140Z,3.3
2022-08-03T05:42:45.561Z,3.1
2022-08-03T05:43:46.277Z,3.3
2022-08-03T05:44:46.281Z,3.7
2022-08-03T05:45:46.795Z,3.4
2022-08-03T05:46:48.951Z,3.3
2022-08-03T05:47:49.481Z,3.2
2022-08-03T05:48:50.102Z,3.8
2022-08-03T05:49:50.210Z,3.4
2022-08-03T05:50:50.531Z,2.9
2022-08-03T05:51:59.980Z,3.3
2022-08-03T05:52:56.054Z,3.2
2022-08-03T05:53:54.133Z,3.5
2022-08-03T05:54:56.247Z,3.4
2022-08-03T05:55:59.308Z,3.5
2022-08-03T05:56:56.090Z,3.3
2022-08-03T05:57:56.762Z,3.4
2022-08-03T05:58:56.727Z,3.6
2022-08-03T05:59:58.666Z,3.6
2022-08-03T06:00:57.548Z,3.1
2022-08-03T06:01:58.036Z,4.3
2022-08-03T06:02:58.381Z,3.8
2022-08-03T06:03:59.100Z,3.4
2022-08-03T06:04:59.115Z,3.4
2022-08-03T06:06:00.446Z,3.7
2022-08-03T06:06:59.951Z,3.1
2022-08-03T06:08:00.147Z,3.9
2022-08-03T06:09:00.774Z,3.1
2022-08-03T06:10:35.998Z,3.2
2022-08-03T06:11:03.762Z,3.2
2022-08-03T06:12:04.491Z,3.4
2022-08-03T06:13:04.180Z,3.2
2022-08-03T06:14:04.601Z,3.1
2022-08-03T06:15:05.741Z,3.2
2022-08-03T06:16:05.839Z,3.4
2022-08-03T06:17:05.540Z,3.3
2022-08-03T06:18:06.258Z,3.2
2022-08-03T06:19:06.585Z,3.2
2022-08-03T06:20:07.609Z,2.9
2022-08-03T06:21:11.047Z,3.2
2022-08-03T06:22:07.525Z,3.2
2022-08-03T06:23:07.946Z,3
2022-08-03T06:24:08.937Z,3.1
2022-08-03T06:25:12.814Z,3.2
2022-08-03T06:26:11.037Z,3.3
2022-08-03T06:27:11.137Z,3.4
2022-08-03T06:28:15.077Z,3.3
2022-08-03T06:29:11.972Z,3.5
2022-08-03T06:30:16.991Z,2.9
2022-08-03T06:31:17.301Z,2.8
2022-08-03T06:32:17.876Z,3.1
2022-08-03T06:33:18.028Z,2.9
2022-08-03T06:34:32.576Z,3.2
2022-08-03T06:35:22.923Z,3.1
2022-08-03T06:36:23.374Z,2.9
2022-08-03T06:37:23.790Z,2.8
2022-08-03T06:38:24.108Z,3
2022-08-03T06:39:24.523Z,2.5
2022-08-03T06:40:25.445Z,2.7
2022-08-03T06:41:26.575Z,2.6
2022-08-03T06:42:26.078Z,3.2
2022-08-03T06:43:26.151Z,2.6
2022-08-03T06:44:26.807Z,2.8
2022-08-03T06:45:31.678Z,3
2022-08-03T06:46:29.995Z,2.8
2022-08-03T06:47:30.104Z,2.5
2022-08-03T06:48:31.133Z,2.5
2022-08-03T06:49:31.067Z,3.2
2022-08-03T06:50:32.886Z,2.6
2022-08-03T06:52:03.849Z,2.7
2022-08-03T06:52:38.227Z,2.6
2022-08-03T06:53:36.399Z,2.9
2022-08-03T06:54:36.606Z,2.7
2022-08-03T06:55:40.754Z,2.7
2022-08-03T06:56:40.098Z,2.4
2022-08-03T06:57:40.406Z,2.7
2022-08-03T06:58:40.824Z,3.6
2022-08-03T07:00:09.903Z,2.9
2022-08-03T07:00:43.576Z,2.5
2022-08-03T07:01:44.108Z,2.7
2022-08-03T07:02:44.332Z,2.3
2022-08-03T07:03:47.562Z,2.6
2022-08-03T07:04:49.840Z,2.6
2022-08-03T07:05:50.209Z,2.5
2022-08-03T07:06:50.511Z,2.9
2022-08-03T07:07:51.025Z,2.5
2022-08-03T07:08:53.597Z,2.6
2022-08-03T07:09:57.115Z,2.5
2022-08-03T07:10:55.747Z,2.4
2022-08-03T07:11:55.857Z,2
2022-08-03T07:12:56.991Z,2.2
2022-08-03T07:13:56.696Z,2.3
2022-08-03T07:15:01.416Z,2.4
2022-08-03T07:15:59.789Z,2.2
2022-08-03T07:17:00.099Z,2.3
2022-08-03T07:18:00.607Z,2.1
2022-08-03T07:19:00.726Z,2.2
2022-08-03T07:20:04.319Z,2.6
2022-08-03T07:21:01.653Z,2.2
2022-08-03T07:22:04.218Z,2.4
2022-08-03T07:23:02.289Z,2.3
2022-08-03T07:24:02.491Z,2.4
2022-08-03T07:25:03.420Z,2.5
2022-08-03T07:26:03.232Z,2
2022-08-03T07:27:04.149Z,1.9
2022-08-03T07:28:04.462Z,2.2
2022-08-03T07:29:04.507Z,2.2
2022-08-03T07:30:08.478Z,2.1
2022-08-03T07:31:07.557Z,2.2
2022-08-03T07:32:07.979Z,2.3
2022-08-03T07:33:08.078Z,2.3
2022-08-03T07:34:08.361Z,2.1
2022-08-03T07:35:24.667Z,2.4
2022-08-03T07:36:12.910Z,5
2022-08-03T07:37:13.129Z,2.8
2022-08-03T07:38:13.539Z,2.1
2022-08-03T07:39:17.685Z,1.9
2022-08-03T07:40:15.620Z,2.1
2022-08-03T07:41:15.978Z,2
2022-08-03T07:42:16.444Z,1.9
2022-08-03T07:43:16.645Z,1.9
2022-08-03T07:44:17.379Z,2
2022-08-03T07:45:17.579Z,1.9
2022-08-03T07:46:17.705Z,1.9
2022-08-03T07:47:26.209Z,1.9
2022-08-03T07:48:18.113Z,1.8
2022-08-03T07:49:18.624Z,2.1
2022-08-03T07:50:19.261Z,1.9
2022-08-03T07:51:19.052Z,1.8
2022-08-03T07:52:19.620Z,2.1
2022-08-03T07:53:19.890Z,1.8
2022-08-03T07:54:20.001Z,1.9
2022-08-03T07:55:23.179Z,2
2022-08-03T07:56:20.730Z,1.7
2022-08-03T07:57:21.139Z,1.7
2022-08-03T07:58:24.203Z,1.9
2022-08-03T07:59:21.880Z,1.8
2022-08-03T08:00:22.190Z,1.9
2022-08-03T08:01:23.105Z,1.8
2022-08-03T08:02:22.820Z,1.8
2022-08-03T08:03:23.441Z,1.9
2022-08-03T08:04:23.659Z,1.8
2022-08-03T08:05:23.856Z,1.7
2022-08-03T08:06:24.136Z,1.7
2022-08-03T08:07:24.387Z,1.9
2022-08-03T08:08:24.810Z,1.6
2022-08-03T08:09:24.991Z,1.8
2022-08-03T08:10:25.523Z,2
2022-08-03T08:11:25.737Z,1.6
2022-08-03T08:12:26.065Z,1.7
2022-08-03T08:13:26.672Z,1.8
2022-08-03T08:14:26.678Z,2.1
2022-08-03T08:15:27.000Z,1.9
2022-08-03T08:16:27.509Z,2
2022-08-03T08:17:28.129Z,2.2
2022-08-03T08:18:28.158Z,1.8
2022-08-03T08:19:28.459Z,2.7
2022-08-03T08:21:52.951Z,2.1
2022-08-03T08:22:33.811Z,1.6
2022-08-03T08:23:42.307Z,1.5
2022-08-03T08:24:35.870Z,1.7
2022-08-03T08:25:36.279Z,2
2022-08-03T08:26:37.208Z,1.7
2022-08-03T08:28:41.617Z,1.5
2022-08-03T08:29:53.102Z,1.4
2022-08-03T08:30:43.087Z,1.4
2022-08-03T08:31:43.072Z,1.6
2022-08-03T08:32:43.489Z,1.5
2022-08-03T08:34:45.947Z,1.5
2022-08-03T08:35:46.263Z,1.5
2022-08-03T08:36:46.903Z,1.4
2022-08-03T08:37:50.796Z,1.5
2022-08-03T08:38:49.055Z,1.5
2022-08-03T08:39:49.673Z,1.5
2022-08-03T08:40:50.625Z,1.3
2022-08-03T08:41:53.346Z,1.5
2022-08-03T08:42:58.370Z,1.5
2022-08-03T08:43:51.458Z,1.4
2022-08-03T08:44:52.083Z,1.4
2022-08-03T08:45:54.122Z,1.4
2022-08-03T08:46:55.358Z,1.7
2022-08-03T08:47:59.912Z,2.1
2022-08-03T08:48:54.808Z,2.2
2022-08-03T08:50:09.158Z,1.9
2022-08-03T08:51:00.098Z,2.1
2022-08-03T08:52:01.168Z,2.2
2022-08-03T08:53:02.486Z,1.7
2022-08-03T08:54:02.386Z,1.2
2022-08-03T08:55:03.190Z,1.1
2022-08-03T08:56:02.190Z,1.4
2022-08-03T08:57:12.480Z,1.3
2022-08-03T08:58:06.398Z,1.5
2022-08-03T09:00:12.746Z,1.3
2022-08-03T09:01:10.262Z,1.3
2022-08-03T09:02:10.942Z,1.5
2022-08-03T09:03:11.968Z,1.3
2022-08-03T09:04:15.141Z,1.4
2022-08-03T09:05:17.184Z,1.4
2022-08-03T09:06:15.461Z,1.1
2022-08-03T09:07:20.739Z,1.4
2022-08-03T09:08:18.910Z,3
2022-08-03T09:10:01.332Z,1.4
2022-08-03T09:10:20.971Z,1.3
2022-08-03T09:11:22.552Z,1.4
2022-08-03T09:12:42.273Z,1.3
2022-08-03T09:13:25.430Z,1.3
2022-08-03T09:14:37.084Z,1.4
2022-08-03T09:15:31.690Z,1.2
2022-08-03T09:16:29.851Z,1.6
2022-08-03T09:17:45.432Z,1
2022-08-03T09:18:35.831Z,1.6
2022-08-03T09:19:36.533Z,1
2022-08-03T09:20:37.044Z,1.5
2022-08-03T09:21:37.823Z,1.2
2022-08-03T09:24:01.370Z,2.1
2022-08-03T09:25:43.322Z,1.2
2022-08-03T09:27:47.841Z,1.3
2022-08-03T09:29:55.126Z,1.5
2022-08-03T09:34:08.369Z,1.2
2022-08-03T09:35:05.398Z,1.2
2022-08-03T09:36:05.423Z,1
2022-08-03T09:37:13.262Z,1
2022-08-03T09:39:10.150Z,1.5
2022-08-03T09:40:08.496Z,1.3
2022-08-03T09:41:18.682Z,1.4
2022-08-03T09:42:18.867Z,1.4
2022-08-03T09:43:12.215Z,1.4
2022-08-03T09:44:24.427Z,1.1
2022-08-03T09:45:26.964Z,1.2
2022-08-03T09:46:14.496Z,1.1
2022-08-03T09:48:26.386Z,1.2
2022-08-03T09:49:18.848Z,1.1
2022-08-03T09:50:19.226Z,1.1
2022-08-03T09:52:17.971Z,1.3
2022-08-03T09:52:39.352Z,1.3
2022-08-03T09:53:23.235Z,1.2
2022-08-03T09:54:32.554Z,1
2022-08-03T09:56:34.218Z,1.2
2022-08-03T09:57:31.146Z,1.6
2022-08-03T09:58:31.866Z,1.2
2022-08-03T09:59:33.271Z,1.3
2022-08-03T10:00:32.204Z,1.2
2022-08-03T10:01:36.463Z,1
2022-08-03T10:02:34.046Z,1.1
2022-08-03T10:04:02.818Z,0.9
2022-08-03T10:05:39.405Z,1.2
2022-08-03T10:06:39.497Z,1.2
2022-08-03T10:07:48.408Z,1.4
2022-08-03T10:08:40.839Z,1.1
2022-08-03T10:10:49.609Z,1.3
2022-08-03T10:11:47.095Z,1.2
2022-08-03T10:12:47.473Z,1.1
2022-08-03T10:13:47.848Z,1.1
2022-08-03T10:14:48.469Z,1.1
2022-08-03T10:16:23.842Z,1.2
2022-08-03T10:16:50.520Z,1
2022-08-03T10:17:50.845Z,1.1
2022-08-03T10:18:51.352Z,1.2
2022-08-03T10:19:51.785Z,1
2022-08-03T10:23:00.184Z,1.1
2022-08-03T10:23:59.378Z,1.3
2022-08-03T10:26:03.380Z,1
2022-08-03T10:27:06.455Z,1.1
2022-08-03T10:28:05.767Z,1.1
2022-08-03T10:29:12.325Z,1.1
2022-08-03T10:30:08.426Z,0.9
2022-08-03T10:31:08.236Z,0.8
2022-08-03T10:35:20.851Z,1
2022-08-03T10:36:14.916Z,0.8
2022-08-03T10:37:17.370Z,0.8
2022-08-03T10:38:21.485Z,0.9
2022-08-03T10:39:22.718Z,1
2022-08-03T10:40:46.813Z,0.8
2022-08-03T10:41:26.123Z,1.1
2022-08-03T10:42:24.976Z,1
2022-08-03T10:44:33.198Z,0.9
2022-08-03T10:45:34.225Z,1
2022-08-03T10:46:33.632Z,0.9
2022-08-03T10:47:33.126Z,1
2022-08-03T10:48:33.629Z,0.9
2022-08-03T10:49:34.573Z,0.8
2022-08-03T10:50:33.237Z,0.9
2022-08-03T10:51:34.674Z,0.8
2022-08-03T10:52:35.113Z,1
2022-08-03T10:53:39.399Z,0.9
2022-08-03T10:54:45.556Z,1
2022-08-03T10:55:42.889Z,1.1
2022-08-03T10:56:49.792Z,1.1
2022-08-03T11:00:00.634Z,0.9
2022-08-03T11:00:53.453Z,1
2022-08-03T11:02:00.835Z,1
2022-08-03T11:11:26.203Z,0.9
2022-08-03T11:12:32.626Z,0.8
2022-08-03T11:13:23.465Z,0.9
2022-08-03T11:14:22.129Z,0.9
2022-08-03T11:15:33.915Z,1.1
2022-08-03T11:16:22.261Z,0.9
2022-08-03T11:17:22.352Z,0.9
2022-08-03T11:18:22.971Z,0.9
2022-08-03T11:24:03.470Z,0.9
2022-08-03T11:27:48.220Z,0.7
2022-08-03T11:28:49.367Z,1.1
2022-08-03T11:30:52.956Z,0.9
2022-08-03T11:31:53.268Z,1
2022-08-03T11:32:57.360Z,0.9
2022-08-03T11:36:02.832Z,1
2022-08-03T11:45:20.126Z,0.8
2022-08-03T11:46:29.782Z,0.8
2022-08-03T11:47:24.200Z,0.9
2022-08-03T11:48:23.381Z,0.8
2022-08-03T11:49:24.269Z,1
2022-08-03T11:50:24.110Z,0.9
2022-08-03T11:51:30.930Z,0.8
2022-08-03T11:52:35.385Z,0.8
2022-08-03T11:53:33.147Z,0.8
2022-08-03T11:54:34.702Z,0.9
2022-08-03T11:55:36.127Z,0.8
2022-08-03T11:59:16.705Z,0.8
2022-08-03T11:59:45.896Z,0.9
2022-08-03T12:00:46.477Z,0.8
2022-08-03T12:01:46.606Z,0.9
2022-08-03T12:03:51.837Z,0.9
2022-08-03T12:04:56.567Z,0.9
2022-08-03T12:05:54.706Z,1.1
2022-08-03T12:07:06.108Z,1
2022-08-03T12:08:03.779Z,0.9
2022-08-03T12:09:16.161Z,0.9
2022-08-03T12:10:14.312Z,0.9
2022-08-03T12:11:14.006Z,0.7
2022-08-03T12:12:16.377Z,0.9
2022-08-03T12:14:44.261Z,0.7
2022-08-03T12:16:23.978Z,0.8
2022-08-03T12:17:22.709Z,0.9
2022-08-03T12:18:23.813Z,0.8
2022-08-03T12:19:23.482Z,0.9
2022-08-03T12:20:34.741Z,0.9
2022-08-03T12:21:28.835Z,0.8
2022-08-03T12:22:34.989Z,0.8
2022-08-03T12:23:37.578Z,1
2022-08-03T12:25:41.645Z,0.7
2022-08-03T12:27:42.164Z,0.7
2022-08-03T12:28:50.064Z,0.8
2022-08-03T12:29:58.609Z,0.7
2022-08-03T12:30:52.732Z,0.8
2022-08-03T12:31:52.124Z,0.7
2022-08-03T12:37:05.452Z,0.7
2022-08-03T12:38:05.880Z,0.8
2022-08-03T12:39:07.934Z,0.9
2022-08-03T12:40:10.592Z,0.8
2022-08-03T12:41:10.201Z,0.8
2022-08-03T12:42:08.568Z,0.8
2022-08-03T12:44:10.845Z,0.8
2022-08-03T12:46:16.977Z,0.6
2022-08-03T12:47:15.360Z,0.9
2022-08-03T12:48:15.164Z,0.9
2022-08-03T12:49:16.590Z,1.3
2022-08-03T12:50:24.906Z,1
2022-08-03T12:51:17.341Z,0.7
2022-08-03T12:52:19.696Z,0.8
2022-08-03T12:53:29.233Z,0.8
2022-08-03T12:54:24.293Z,0.9
2022-08-03T12:55:23.717Z,1
2022-08-03T12:56:23.109Z,0.8
2022-08-03T12:57:23.111Z,0.8
2022-08-03T12:58:34.881Z,0.8
2022-08-03T12:59:32.454Z,0.9
2022-08-03T13:00:29.381Z,0.8
2022-08-03T13:02:28.987Z,1.6
2022-08-03T13:03:39.518Z,0.9
2022-08-03T13:04:35.645Z,0.7
2022-08-03T13:05:43.544Z,0.9
2022-08-03T13:06:35.965Z,0.8
2022-08-03T13:07:45.904Z,0.9
2022-08-03T13:08:38.752Z,0.8
2022-08-03T13:09:47.569Z,0.9
2022-08-03T13:10:39.996Z,0.8
2022-08-03T13:11:55.809Z,0.7
2022-08-03T13:13:46.669Z,0.9
2022-08-03T13:14:49.234Z,0.9
2022-08-03T13:15:48.055Z,0.9
2022-08-03T13:16:50.891Z,0.8
2022-08-03T13:17:48.124Z,0.7
2022-08-03T13:18:49.359Z,0.6
2022-08-03T13:19:49.874Z,0.8
2022-08-03T13:20:49.275Z,0.8
2022-08-03T13:22:02.140Z,0.7
2022-08-03T13:22:52.259Z,0.6
2022-08-03T13:23:52.665Z,0.6
2022-08-03T13:24:55.541Z,0.8
2022-08-03T13:25:55.786Z,0.6
2022-08-03T13:26:53.712Z,0.8
2022-08-03T13:28:04.740Z,0.7
2022-08-03T13:28:58.125Z,0.9
2022-08-03T13:29:58.954Z,0.7
2022-08-03T13:30:59.044Z,0.8
2022-08-03T13:31:59.083Z,0.7
2022-08-03T13:32:59.386Z,0.7
2022-08-03T13:33:59.902Z,1
2022-08-03T13:35:00.734Z,0.9
2022-08-03T13:36:00.632Z,0.9
2022-08-03T13:37:19.772Z,0.7
2022-08-03T13:38:02.253Z,0.7
2022-08-03T13:39:02.917Z,0.7
2022-08-03T13:40:05.643Z,0.9
2022-08-03T13:41:04.960Z,0.8
2022-08-03T13:42:04.256Z,0.6
2022-08-03T13:43:04.461Z,1
2022-08-03T13:44:26.721Z,0.9
2022-08-03T13:45:07.455Z,0.8
2022-08-03T13:46:07.251Z,0.8
2022-08-03T13:47:07.665Z,0.8
2022-08-03T13:48:08.183Z,0.8
2022-08-03T13:49:08.602Z,0.8
2022-08-03T13:50:09.107Z,0.8
2022-08-03T13:51:21.722Z,0.8
2022-08-03T13:52:10.260Z,0.8
2022-08-03T13:53:10.677Z,0.7
2022-08-03T13:54:10.993Z,1.3
2022-08-03T13:55:11.570Z,0.7
2022-08-03T13:56:11.622Z,0.9
2022-08-03T13:58:06.079Z,0.9
2022-08-03T13:58:14.638Z,0.7
2022-08-03T13:59:14.404Z,0.7
2022-08-03T14:00:26.671Z,0.7
2022-08-03T14:01:16.433Z,1
2022-08-03T14:02:16.879Z,0.8
2022-08-03T14:03:17.193Z,0.9
2022-08-03T14:04:22.261Z,0.8
2022-08-03T14:05:20.280Z,0.8
2022-08-03T14:06:21.151Z,1.1
2022-08-03T14:07:21.173Z,0.9
2022-08-03T14:08:21.012Z,0.7
2022-08-03T14:09:21.546Z,0.8
2022-08-03T14:10:21.854Z,0.9
2022-08-03T14:11:22.364Z,1.1
2022-08-03T14:12:22.386Z,0.8
2022-08-03T14:13:22.991Z,1
2022-08-03T14:14:23.205Z,0.8
2022-08-03T14:15:25.159Z,1.1
2022-08-03T14:16:24.136Z,1.3
2022-08-03T14:17:24.562Z,1.1
2022-08-03T14:18:27.951Z,1.1
2022-08-03T14:19:26.922Z,0.8
2022-08-03T14:20:37.215Z,1
2022-08-03T14:21:30.274Z,1
2022-08-03T14:22:30.629Z,1
2022-08-03T14:23:30.893Z,0.8
2022-08-03T14:24:31.256Z,0.8
2022-08-03T14:25:31.469Z,1.2
2022-08-03T14:26:36.284Z,0.7
2022-08-03T14:27:36.499Z,0.9
2022-08-03T14:28:36.814Z,0.9
2022-08-03T14:29:37.637Z,1
2022-08-03T14:30:37.547Z,0.9
2022-08-03T14:32:09.744Z,1.1
2022-08-03T14:32:40.634Z,0.9
2022-08-03T14:33:41.072Z,0.9
2022-08-03T14:34:41.460Z,1
2022-08-03T14:35:41.362Z,1.7
2022-08-03T14:36:42.091Z,0.8
2022-08-03T14:37:42.303Z,0.9
2022-08-03T14:38:42.474Z,1
2022-08-03T14:40:00.238Z,1.2
2022-08-03T14:40:43.253Z,0.9
2022-08-03T14:41:43.363Z,0.9
2022-08-03T14:42:43.874Z,0.9
2022-08-03T14:44:02.190Z,0.7
2022-08-03T14:44:44.921Z,0.9
2022-08-03T14:45:45.444Z,0.9
2022-08-03T14:46:45.642Z,0.9
2022-08-03T14:50:24.961Z,0.9
2022-08-03T14:50:29.343Z,1
2022-08-03T14:50:38.131Z,1.4
2022-08-03T14:50:52.802Z,0.9
2022-08-03T14:51:53.859Z,0.8
2022-08-03T14:52:53.263Z,1
2022-08-03T14:53:53.728Z,0.9
2022-08-03T14:54:53.883Z,0.8
2022-08-03T14:55:54.298Z,1
2022-08-03T14:56:54.817Z,0.9
2022-08-03T14:57:55.102Z,1
2022-08-03T14:58:55.337Z,0.8
2022-08-03T14:59:57.276Z,0.8
2022-08-03T15:00:56.690Z,0.8
2022-08-03T15:02:02.768Z,0.8
2022-08-03T15:02:59.163Z,0.9
2022-08-03T15:04:00.104Z,1
2022-08-03T15:04:59.626Z,0.9
2022-08-03T15:05:59.954Z,0.8
2022-08-03T15:07:00.619Z,1
2022-08-03T15:08:00.632Z,0.8
2022-08-03T15:09:21.597Z,0.9
2022-08-03T15:10:04.020Z,0.9
2022-08-03T15:11:03.721Z,0.8
2022-08-03T15:12:05.160Z,1.1
2022-08-03T15:13:04.450Z,0.9
2022-08-03T15:14:08.980Z,1
2022-08-03T15:15:07.740Z,1.2
2022-08-03T15:16:07.228Z,1.1
2022-08-03T15:17:07.746Z,1
2022-08-03T15:18:07.858Z,1
2022-08-03T15:20:00.880Z,1
2022-08-03T15:20:28.851Z,1
2022-08-03T15:21:16.643Z,0.9
2022-08-03T15:22:16.070Z,0.9
2022-08-03T15:23:18.539Z,1
2022-08-03T15:24:18.238Z,1.4
2022-08-03T15:26:03.150Z,1
2022-08-03T15:26:32.721Z,1.5
2022-08-03T15:27:23.350Z,1
2022-08-03T15:28:23.078Z,0.8
2022-08-03T15:30:09.519Z,0.7
2022-08-03T15:30:27.081Z,0.9
2022-08-03T15:31:27.219Z,1
2022-08-03T15:32:27.623Z,0.9
2022-08-03T15:33:28.452Z,0.9
2022-08-03T15:34:28.240Z,0.9
2022-08-03T15:35:28.461Z,1.1
2022-08-03T15:36:28.761Z,1.1
2022-08-03T15:37:29.379Z,0.8
2022-08-03T15:38:29.411Z,0.9
2022-08-03T15:39:30.044Z,0.9